sensor_id;sensor_type;location;lat;lon;timestamp;P1;durP1;ratioP1;P2;durP2;ratioP2
21860;SDS011;11095;48.066;8.540;2023-12-22T00:01:28;1.52;;;0.70;;
21860;SDS011;11095;48.066;8.540;2023-12-22T00:03:53;2.22;;;0.80;;
21860;SDS011;11095;48.066;8.540;2023-12-22T00:06:19;2.38;;;0.82;;
21860;SDS011;11095;48.066;8.540;2023-12-22T00:08:44;1.60;;;0.90;;
21860;SDS011;11095;48.066;8.540;2023-12-22T00:11:10;2.80;;;1.00;;
21860;SDS011;11095;48.066;8.540;2023-12-22T00:13:35;2.20;;;1.10;;
21860;SDS011;11095;48.066;8.540;2023-12-22T00:16:01;3.90;;;1.10;;
21860;SDS011;11095;48.066;8.540;2023-12-22T00:18:27;2.40;;;0.95;;
21860;SDS011;11095;48.066;8.540;2023-12-22T00:20:52;3.83;;;1.17;;
21860;SDS011;11095;48.066;8.540;2023-12-22T00:23:18;3.15;;;1.30;;
21860;SDS011;11095;48.066;8.540;2023-12-22T00:25:44;2.50;;;1.02;;
21860;SDS011;11095;48.066;8.540;2023-12-22T00:28:09;3.90;;;1.00;;
21860;SDS011;11095;48.066;8.540;2023-12-22T00:30:35;4.40;;;1.00;;
21860;SDS011;11095;48.066;8.540;2023-12-22T00:33:01;4.05;;;1.20;;
21860;SDS011;11095;48.066;8.540;2023-12-22T00:35:27;2.38;;;1.00;;
21860;SDS011;11095;48.066;8.540;2023-12-22T00:37:52;3.45;;;1.10;;
21860;SDS011;11095;48.066;8.540;2023-12-22T00:40:18;2.92;;;1.10;;
21860;SDS011;11095;48.066;8.540;2023-12-22T00:42:44;2.88;;;1.08;;
21860;SDS011;11095;48.066;8.540;2023-12-22T00:45:09;2.42;;;1.08;;
21860;SDS011;11095;48.066;8.540;2023-12-22T00:47:35;3.90;;;1.13;;
21860;SDS011;11095;48.066;8.540;2023-12-22T00:50:01;3.40;;;1.17;;
21860;SDS011;11095;48.066;8.540;2023-12-22T00:52:27;2.63;;;1.20;;
21860;SDS011;11095;48.066;8.540;2023-12-22T00:54:53;5.32;;;1.20;;
21860;SDS011;11095;48.066;8.540;2023-12-22T00:57:19;2.35;;;0.90;;
21860;SDS011;11095;48.066;8.540;2023-12-22T00:59:44;3.60;;;0.90;;
21860;SDS011;11095;48.066;8.540;2023-12-22T01:02:13;1.60;;;0.95;;
21860;SDS011;11095;48.066;8.540;2023-12-22T01:04:39;2.08;;;0.68;;
21860;SDS011;11095;48.066;8.540;2023-12-22T01:07:06;3.35;;;0.85;;
21860;SDS011;11095;48.066;8.540;2023-12-22T01:09:33;2.40;;;1.10;;
21860;SDS011;11095;48.066;8.540;2023-12-22T01:11:58;3.83;;;1.15;;
21860;SDS011;11095;48.066;8.540;2023-12-22T01:14:27;2.20;;;0.82;;
21860;SDS011;11095;48.066;8.540;2023-12-22T01:16:53;2.17;;;0.90;;
21860;SDS011;11095;48.066;8.540;2023-12-22T01:19:18;2.58;;;0.88;;
21860;SDS011;11095;48.066;8.540;2023-12-22T01:21:44;2.75;;;0.80;;
21860;SDS011;11095;48.066;8.540;2023-12-22T01:24:09;2.28;;;0.82;;
21860;SDS011;11095;48.066;8.540;2023-12-22T01:26:35;2.33;;;1.00;;
21860;SDS011;11095;48.066;8.540;2023-12-22T01:29:00;2.20;;;0.70;;
21860;SDS011;11095;48.066;8.540;2023-12-22T01:31:27;3.58;;;0.88;;
21860;SDS011;11095;48.066;8.540;2023-12-22T01:33:52;4.00;;;0.98;;
21860;SDS011;11095;48.066;8.540;2023-12-22T01:36:18;3.85;;;0.98;;
21860;SDS011;11095;48.066;8.540;2023-12-22T01:38:43;3.00;;;0.90;;
21860;SDS011;11095;48.066;8.540;2023-12-22T01:41:09;1.60;;;0.70;;
21860;SDS011;11095;48.066;8.540;2023-12-22T01:43:34;3.10;;;0.70;;
21860;SDS011;11095;48.066;8.540;2023-12-22T01:46:00;2.53;;;0.90;;
21860;SDS011;11095;48.066;8.540;2023-12-22T01:48:27;3.10;;;1.20;;
21860;SDS011;11095;48.066;8.540;2023-12-22T01:50:53;3.47;;;1.05;;
21860;SDS011;11095;48.066;8.540;2023-12-22T01:53:20;4.78;;;1.23;;
21860;SDS011;11095;48.066;8.540;2023-12-22T01:55:48;4.47;;;1.25;;
21860;SDS011;11095;48.066;8.540;2023-12-22T01:58:15;2.65;;;0.80;;
21860;SDS011;11095;48.066;8.540;2023-12-22T02:00:41;6.30;;;1.10;;
21860;SDS011;11095;48.066;8.540;2023-12-22T02:03:07;3.78;;;1.05;;
21860;SDS011;11095;48.066;8.540;2023-12-22T02:05:33;4.25;;;1.00;;
21860;SDS011;11095;48.066;8.540;2023-12-22T02:07:59;2.42;;;0.95;;
21860;SDS011;11095;48.066;8.540;2023-12-22T02:10:25;2.45;;;1.00;;
21860;SDS011;11095;48.066;8.540;2023-12-22T02:12:51;2.97;;;0.90;;
21860;SDS011;11095;48.066;8.540;2023-12-22T02:15:16;2.42;;;0.82;;
21860;SDS011;11095;48.066;8.540;2023-12-22T02:17:53;2.35;;;0.70;;
21860;SDS011;11095;48.066;8.540;2023-12-22T02:20:23;1.75;;;0.95;;
21860;SDS011;11095;48.066;8.540;2023-12-22T02:22:52;2.30;;;0.70;;
21860;SDS011;11095;48.066;8.540;2023-12-22T02:25:18;1.88;;;0.70;;
21860;SDS011;11095;48.066;8.540;2023-12-22T02:27:48;2.13;;;0.75;;
21860;SDS011;11095;48.066;8.540;2023-12-22T02:30:18;2.88;;;0.80;;
21860;SDS011;11095;48.066;8.540;2023-12-22T02:32:56;2.45;;;0.70;;
21860;SDS011;11095;48.066;8.540;2023-12-22T02:35:26;2.85;;;1.08;;
21860;SDS011;11095;48.066;8.540;2023-12-22T02:37:54;3.95;;;1.00;;
21860;SDS011;11095;48.066;8.540;2023-12-22T02:40:22;3.45;;;1.10;;
21860;SDS011;11095;48.066;8.540;2023-12-22T02:42:49;2.00;;;0.80;;
21860;SDS011;11095;48.066;8.540;2023-12-22T02:45:17;4.53;;;1.20;;
21860;SDS011;11095;48.066;8.540;2023-12-22T02:47:43;7.10;;;1.20;;
21860;SDS011;11095;48.066;8.540;2023-12-22T02:50:09;3.50;;;1.10;;
21860;SDS011;11095;48.066;8.540;2023-12-22T02:52:36;2.35;;;1.00;;
21860;SDS011;11095;48.066;8.540;2023-12-22T02:55:02;3.25;;;0.70;;
21860;SDS011;11095;48.066;8.540;2023-12-22T02:57:29;3.50;;;0.90;;
21860;SDS011;11095;48.066;8.540;2023-12-22T02:59:54;3.33;;;0.90;;
21860;SDS011;11095;48.066;8.540;2023-12-22T03:02:20;3.10;;;1.00;;
21860;SDS011;11095;48.066;8.540;2023-12-22T03:04:45;3.95;;;1.10;;
21860;SDS011;11095;48.066;8.540;2023-12-22T03:07:11;4.13;;;1.00;;
21860;SDS011;11095;48.066;8.540;2023-12-22T03:09:37;3.50;;;1.00;;
21860;SDS011;11095;48.066;8.540;2023-12-22T03:12:03;5.53;;;1.10;;
21860;SDS011;11095;48.066;8.540;2023-12-22T03:14:30;2.53;;;1.40;;
21860;SDS011;11095;48.066;8.540;2023-12-22T03:16:58;4.75;;;1.40;;
21860;SDS011;11095;48.066;8.540;2023-12-22T03:19:30;4.32;;;1.20;;
21860;SDS011;11095;48.066;8.540;2023-12-22T03:21:56;4.78;;;1.40;;
21860;SDS011;11095;48.066;8.540;2023-12-22T03:24:22;6.63;;;1.55;;
21860;SDS011;11095;48.066;8.540;2023-12-22T03:26:48;4.18;;;1.33;;
21860;SDS011;11095;48.066;8.540;2023-12-22T03:29:15;4.85;;;1.40;;
21860;SDS011;11095;48.066;8.540;2023-12-22T03:31:40;4.32;;;1.42;;
21860;SDS011;11095;48.066;8.540;2023-12-22T03:34:06;5.35;;;1.20;;
21860;SDS011;11095;48.066;8.540;2023-12-22T03:36:32;3.33;;;1.20;;
21860;SDS011;11095;48.066;8.540;2023-12-22T03:38:58;5.10;;;1.40;;
21860;SDS011;11095;48.066;8.540;2023-12-22T03:41:23;5.07;;;1.40;;
21860;SDS011;11095;48.066;8.540;2023-12-22T03:43:49;5.18;;;1.40;;
21860;SDS011;11095;48.066;8.540;2023-12-22T03:46:14;5.95;;;1.30;;
21860;SDS011;11095;48.066;8.540;2023-12-22T03:48:40;5.22;;;1.30;;
21860;SDS011;11095;48.066;8.540;2023-12-22T03:51:06;5.70;;;1.38;;
21860;SDS011;11095;48.066;8.540;2023-12-22T03:53:31;4.10;;;1.10;;
21860;SDS011;11095;48.066;8.540;2023-12-22T03:55:57;4.63;;;1.50;;
21860;SDS011;11095;48.066;8.540;2023-12-22T03:58:22;4.13;;;1.23;;
21860;SDS011;11095;48.066;8.540;2023-12-22T04:00:48;5.25;;;1.60;;
21860;SDS011;11095;48.066;8.540;2023-12-22T04:03:14;4.53;;;1.20;;
21860;SDS011;11095;48.066;8.540;2023-12-22T04:05:39;6.68;;;1.35;;
21860;SDS011;11095;48.066;8.540;2023-12-22T04:08:05;5.75;;;1.30;;
21860;SDS011;11095;48.066;8.540;2023-12-22T04:10:31;5.03;;;1.30;;
21860;SDS011;11095;48.066;8.540;2023-12-22T04:12:57;5.65;;;1.50;;
21860;SDS011;11095;48.066;8.540;2023-12-22T04:15:22;5.35;;;1.30;;
21860;SDS011;11095;48.066;8.540;2023-12-22T04:17:48;5.15;;;1.15;;
21860;SDS011;11095;48.066;8.540;2023-12-22T04:20:14;3.70;;;1.05;;
21860;SDS011;11095;48.066;8.540;2023-12-22T04:22:40;6.47;;;1.30;;
21860;SDS011;11095;48.066;8.540;2023-12-22T04:25:06;6.43;;;1.38;;
21860;SDS011;11095;48.066;8.540;2023-12-22T04:27:33;4.32;;;1.42;;
21860;SDS011;11095;48.066;8.540;2023-12-22T04:29:59;6.85;;;1.52;;
21860;SDS011;11095;48.066;8.540;2023-12-22T04:32:24;6.13;;;1.42;;
21860;SDS011;11095;48.066;8.540;2023-12-22T04:34:50;7.57;;;1.35;;
21860;SDS011;11095;48.066;8.540;2023-12-22T04:37:15;5.43;;;1.42;;
21860;SDS011;11095;48.066;8.540;2023-12-22T04:39:41;6.32;;;1.35;;
21860;SDS011;11095;48.066;8.540;2023-12-22T04:42:06;3.88;;;1.35;;
21860;SDS011;11095;48.066;8.540;2023-12-22T04:44:32;4.78;;;1.17;;
21860;SDS011;11095;48.066;8.540;2023-12-22T04:46:58;3.83;;;1.08;;
21860;SDS011;11095;48.066;8.540;2023-12-22T04:49:23;5.72;;;1.40;;
21860;SDS011;11095;48.066;8.540;2023-12-22T04:51:49;4.97;;;1.30;;
21860;SDS011;11095;48.066;8.540;2023-12-22T04:54:14;4.90;;;1.10;;
21860;SDS011;11095;48.066;8.540;2023-12-22T04:56:40;4.63;;;1.20;;
21860;SDS011;11095;48.066;8.540;2023-12-22T04:59:05;5.18;;;1.25;;
21860;SDS011;11095;48.066;8.540;2023-12-22T05:01:31;5.50;;;1.17;;
21860;SDS011;11095;48.066;8.540;2023-12-22T05:03:57;3.75;;;1.27;;
21860;SDS011;11095;48.066;8.540;2023-12-22T05:06:22;5.45;;;1.20;;
21860;SDS011;11095;48.066;8.540;2023-12-22T05:08:48;5.90;;;1.17;;
21860;SDS011;11095;48.066;8.540;2023-12-22T05:11:13;4.32;;;1.42;;
21860;SDS011;11095;48.066;8.540;2023-12-22T05:13:39;4.75;;;1.17;;
21860;SDS011;11095;48.066;8.540;2023-12-22T05:16:07;5.35;;;1.17;;
21860;SDS011;11095;48.066;8.540;2023-12-22T05:18:32;4.10;;;1.10;;
21860;SDS011;11095;48.066;8.540;2023-12-22T05:20:58;6.03;;;1.10;;
21860;SDS011;11095;48.066;8.540;2023-12-22T05:23:23;4.00;;;1.05;;
21860;SDS011;11095;48.066;8.540;2023-12-22T05:25:49;3.53;;;1.00;;
21860;SDS011;11095;48.066;8.540;2023-12-22T05:28:14;4.05;;;1.20;;
21860;SDS011;11095;48.066;8.540;2023-12-22T05:30:40;4.05;;;0.93;;
21860;SDS011;11095;48.066;8.540;2023-12-22T05:33:05;5.32;;;1.48;;
21860;SDS011;11095;48.066;8.540;2023-12-22T05:35:31;7.18;;;1.40;;
21860;SDS011;11095;48.066;8.540;2023-12-22T05:37:57;5.55;;;1.30;;
21860;SDS011;11095;48.066;8.540;2023-12-22T05:40:22;4.20;;;1.30;;
21860;SDS011;11095;48.066;8.540;2023-12-22T05:42:48;3.55;;;1.27;;
21860;SDS011;11095;48.066;8.540;2023-12-22T05:45:14;5.90;;;1.30;;
21860;SDS011;11095;48.066;8.540;2023-12-22T05:47:40;5.95;;;1.50;;
21860;SDS011;11095;48.066;8.540;2023-12-22T05:50:06;6.22;;;1.42;;
21860;SDS011;11095;48.066;8.540;2023-12-22T05:52:32;5.30;;;1.38;;
21860;SDS011;11095;48.066;8.540;2023-12-22T05:54:58;5.13;;;1.60;;
21860;SDS011;11095;48.066;8.540;2023-12-22T05:57:26;5.10;;;1.50;;
21860;SDS011;11095;48.066;8.540;2023-12-22T05:59:52;6.20;;;1.47;;
21860;SDS011;11095;48.066;8.540;2023-12-22T06:02:18;5.15;;;1.65;;
21860;SDS011;11095;48.066;8.540;2023-12-22T06:04:43;6.22;;;1.67;;
21860;SDS011;11095;48.066;8.540;2023-12-22T06:07:10;8.13;;;1.70;;
21860;SDS011;11095;48.066;8.540;2023-12-22T06:09:36;7.53;;;1.65;;
21860;SDS011;11095;48.066;8.540;2023-12-22T06:12:01;5.07;;;1.30;;
21860;SDS011;11095;48.066;8.540;2023-12-22T06:14:27;5.28;;;1.40;;
21860;SDS011;11095;48.066;8.540;2023-12-22T06:16:53;4.70;;;1.65;;
21860;SDS011;11095;48.066;8.540;2023-12-22T06:19:21;4.88;;;1.48;;
21860;SDS011;11095;48.066;8.540;2023-12-22T06:21:49;7.30;;;1.30;;
21860;SDS011;11095;48.066;8.540;2023-12-22T06:24:14;5.57;;;1.42;;
21860;SDS011;11095;48.066;8.540;2023-12-22T06:26:41;4.85;;;1.48;;
21860;SDS011;11095;48.066;8.540;2023-12-22T06:29:07;6.70;;;1.80;;
21860;SDS011;11095;48.066;8.540;2023-12-22T06:31:32;6.72;;;1.55;;
21860;SDS011;11095;48.066;8.540;2023-12-22T06:33:58;3.83;;;1.50;;
21860;SDS011;11095;48.066;8.540;2023-12-22T06:36:27;6.32;;;1.65;;
21860;SDS011;11095;48.066;8.540;2023-12-22T06:38:53;6.00;;;1.60;;
21860;SDS011;11095;48.066;8.540;2023-12-22T06:43:55;6.20;;;1.40;;
21860;SDS011;11095;48.066;8.540;2023-12-22T06:46:22;3.70;;;1.40;;
21860;SDS011;11095;48.066;8.540;2023-12-22T06:48:50;9.10;;;2.00;;
21860;SDS011;11095;48.066;8.540;2023-12-22T06:51:17;5.10;;;1.45;;
21860;SDS011;11095;48.066;8.540;2023-12-22T06:53:47;5.82;;;1.20;;
21860;SDS011;11095;48.066;8.540;2023-12-22T06:56:14;6.90;;;1.60;;
21860;SDS011;11095;48.066;8.540;2023-12-22T06:58:47;5.80;;;1.70;;
21860;SDS011;11095;48.066;8.540;2023-12-22T07:01:48;5.93;;;1.70;;
21860;SDS011;11095;48.066;8.540;2023-12-22T07:04:06;5.43;;;1.58;;
21860;SDS011;11095;48.066;8.540;2023-12-22T07:06:33;6.43;;;1.42;;
21860;SDS011;11095;48.066;8.540;2023-12-22T07:11:37;4.63;;;1.40;;
21860;SDS011;11095;48.066;8.540;2023-12-22T07:14:06;4.00;;;1.40;;
21860;SDS011;11095;48.066;8.540;2023-12-22T07:16:32;6.90;;;1.52;;
21860;SDS011;11095;48.066;8.540;2023-12-22T07:18:59;5.50;;;1.55;;
21860;SDS011;11095;48.066;8.540;2023-12-22T07:21:25;5.35;;;1.30;;
21860;SDS011;11095;48.066;8.540;2023-12-22T07:23:51;2.50;;;1.00;;
21860;SDS011;11095;48.066;8.540;2023-12-22T07:26:17;3.50;;;0.90;;
21860;SDS011;11095;48.066;8.540;2023-12-22T07:28:42;4.57;;;1.08;;
21860;SDS011;11095;48.066;8.540;2023-12-22T07:31:08;2.60;;;0.93;;
21860;SDS011;11095;48.066;8.540;2023-12-22T07:33:33;3.88;;;0.90;;
21860;SDS011;11095;48.066;8.540;2023-12-22T07:35:59;3.65;;;0.93;;
21860;SDS011;11095;48.066;8.540;2023-12-22T07:38:25;3.45;;;1.00;;
21860;SDS011;11095;48.066;8.540;2023-12-22T07:40:50;2.50;;;0.80;;
21860;SDS011;11095;48.066;8.540;2023-12-22T07:43:16;9.57;;;1.23;;
21860;SDS011;11095;48.066;8.540;2023-12-22T07:45:41;4.40;;;1.23;;
21860;SDS011;11095;48.066;8.540;2023-12-22T07:48:07;3.55;;;1.25;;
21860;SDS011;11095;48.066;8.540;2023-12-22T07:50:33;6.10;;;1.20;;
21860;SDS011;11095;48.066;8.540;2023-12-22T07:52:59;4.30;;;1.15;;
21860;SDS011;11095;48.066;8.540;2023-12-22T07:55:24;4.80;;;1.30;;
21860;SDS011;11095;48.066;8.540;2023-12-22T07:57:50;4.40;;;1.55;;
21860;SDS011;11095;48.066;8.540;2023-12-22T08:00:17;6.05;;;1.40;;
21860;SDS011;11095;48.066;8.540;2023-12-22T08:02:42;5.30;;;1.40;;
21860;SDS011;11095;48.066;8.540;2023-12-22T08:05:08;5.18;;;1.55;;
21860;SDS011;11095;48.066;8.540;2023-12-22T08:07:34;3.28;;;1.10;;
21860;SDS011;11095;48.066;8.540;2023-12-22T08:10:01;4.03;;;1.33;;
21860;SDS011;11095;48.066;8.540;2023-12-22T08:12:27;3.50;;;1.20;;
21860;SDS011;11095;48.066;8.540;2023-12-22T08:14:53;3.90;;;0.95;;
21860;SDS011;11095;48.066;8.540;2023-12-22T08:17:19;3.80;;;1.02;;
21860;SDS011;11095;48.066;8.540;2023-12-22T08:19:44;3.67;;;0.90;;
21860;SDS011;11095;48.066;8.540;2023-12-22T08:22:10;1.83;;;1.00;;
21860;SDS011;11095;48.066;8.540;2023-12-22T08:24:38;2.17;;;0.90;;
21860;SDS011;11095;48.066;8.540;2023-12-22T08:27:04;2.90;;;0.95;;
21860;SDS011;11095;48.066;8.540;2023-12-22T08:29:31;3.33;;;0.98;;
21860;SDS011;11095;48.066;8.540;2023-12-22T08:31:57;2.35;;;0.80;;
21860;SDS011;11095;48.066;8.540;2023-12-22T08:34:23;2.75;;;1.00;;
21860;SDS011;11095;48.066;8.540;2023-12-22T08:36:49;2.05;;;1.02;;
21860;SDS011;11095;48.066;8.540;2023-12-22T08:39:14;3.47;;;1.17;;
21860;SDS011;11095;48.066;8.540;2023-12-22T08:41:40;2.85;;;1.17;;
21860;SDS011;11095;48.066;8.540;2023-12-22T08:44:06;4.20;;;0.90;;
21860;SDS011;11095;48.066;8.540;2023-12-22T08:46:32;2.65;;;1.20;;
21860;SDS011;11095;48.066;8.540;2023-12-22T08:48:58;3.92;;;0.80;;
21860;SDS011;11095;48.066;8.540;2023-12-22T08:51:27;3.03;;;1.10;;
21860;SDS011;11095;48.066;8.540;2023-12-22T08:53:54;2.42;;;0.95;;
21860;SDS011;11095;48.066;8.540;2023-12-22T08:56:23;2.05;;;0.90;;
21860;SDS011;11095;48.066;8.540;2023-12-22T08:58:50;1.92;;;0.98;;
21860;SDS011;11095;48.066;8.540;2023-12-22T09:01:17;1.85;;;0.63;;
21860;SDS011;11095;48.066;8.540;2023-12-22T09:03:44;1.40;;;0.68;;
21860;SDS011;11095;48.066;8.540;2023-12-22T09:08:45;0.93;;;0.60;;
21860;SDS011;11095;48.066;8.540;2023-12-22T09:11:11;3.30;;;1.05;;
21860;SDS011;11095;48.066;8.540;2023-12-22T09:13:37;0.98;;;0.70;;
21860;SDS011;11095;48.066;8.540;2023-12-22T09:16:03;1.33;;;0.80;;
21860;SDS011;11095;48.066;8.540;2023-12-22T09:18:31;0.90;;;0.60;;
21860;SDS011;11095;48.066;8.540;2023-12-22T09:20:58;1.73;;;0.90;;
21860;SDS011;11095;48.066;8.540;2023-12-22T09:23:24;1.25;;;0.60;;
21860;SDS011;11095;48.066;8.540;2023-12-22T09:25:50;1.58;;;0.65;;
21860;SDS011;11095;48.066;8.540;2023-12-22T09:28:15;1.73;;;0.60;;
21860;SDS011;11095;48.066;8.540;2023-12-22T09:30:41;1.73;;;0.80;;
21860;SDS011;11095;48.066;8.540;2023-12-22T09:33:09;2.35;;;0.80;;
21860;SDS011;11095;48.066;8.540;2023-12-22T09:35:35;2.10;;;0.70;;
21860;SDS011;11095;48.066;8.540;2023-12-22T09:38:01;2.20;;;0.80;;
21860;SDS011;11095;48.066;8.540;2023-12-22T09:40:27;4.00;;;0.98;;
21860;SDS011;11095;48.066;8.540;2023-12-22T09:42:54;3.65;;;1.08;;
21860;SDS011;11095;48.066;8.540;2023-12-22T09:45:20;2.33;;;1.10;;
21860;SDS011;11095;48.066;8.540;2023-12-22T09:47:47;5.75;;;1.10;;
21860;SDS011;11095;48.066;8.540;2023-12-22T09:50:14;3.67;;;0.90;;
21860;SDS011;11095;48.066;8.540;2023-12-22T09:52:42;3.20;;;1.13;;
21860;SDS011;11095;48.066;8.540;2023-12-22T09:55:14;4.15;;;1.40;;
21860;SDS011;11095;48.066;8.540;2023-12-22T09:57:40;8.05;;;1.63;;
21860;SDS011;11095;48.066;8.540;2023-12-22T10:00:10;6.82;;;1.50;;
21860;SDS011;11095;48.066;8.540;2023-12-22T10:02:37;8.15;;;1.52;;
21860;SDS011;11095;48.066;8.540;2023-12-22T10:05:05;6.28;;;1.60;;
21860;SDS011;11095;48.066;8.540;2023-12-22T10:07:31;5.25;;;1.63;;
21860;SDS011;11095;48.066;8.540;2023-12-22T10:09:58;5.78;;;1.50;;
21860;SDS011;11095;48.066;8.540;2023-12-22T10:12:25;6.75;;;1.80;;
21860;SDS011;11095;48.066;8.540;2023-12-22T10:14:52;8.23;;;2.03;;
21860;SDS011;11095;48.066;8.540;2023-12-22T10:17:19;6.78;;;1.60;;
21860;SDS011;11095;48.066;8.540;2023-12-22T10:19:45;5.88;;;1.90;;
21860;SDS011;11095;48.066;8.540;2023-12-22T10:22:10;7.03;;;1.55;;
21860;SDS011;11095;48.066;8.540;2023-12-22T10:24:37;5.45;;;1.63;;
21860;SDS011;11095;48.066;8.540;2023-12-22T10:27:12;5.63;;;1.60;;
21860;SDS011;11095;48.066;8.540;2023-12-22T10:29:39;8.50;;;2.30;;
21860;SDS011;11095;48.066;8.540;2023-12-22T10:32:05;7.15;;;1.80;;
21860;SDS011;11095;48.066;8.540;2023-12-22T10:34:32;9.18;;;1.73;;
21860;SDS011;11095;48.066;8.540;2023-12-22T10:37:01;4.43;;;1.90;;
21860;SDS011;11095;48.066;8.540;2023-12-22T10:39:27;6.78;;;2.42;;
21860;SDS011;11095;48.066;8.540;2023-12-22T10:41:54;4.65;;;1.50;;
21860;SDS011;11095;48.066;8.540;2023-12-22T10:44:20;3.83;;;1.58;;
21860;SDS011;11095;48.066;8.540;2023-12-22T10:46:49;3.45;;;1.42;;
21860;SDS011;11095;48.066;8.540;2023-12-22T10:49:15;6.43;;;1.60;;
21860;SDS011;11095;48.066;8.540;2023-12-22T10:51:41;4.38;;;1.50;;
21860;SDS011;11095;48.066;8.540;2023-12-22T10:54:07;3.20;;;1.30;;
21860;SDS011;11095;48.066;8.540;2023-12-22T10:56:33;5.03;;;1.70;;
21860;SDS011;11095;48.066;8.540;2023-12-22T10:58:59;3.92;;;1.30;;
21860;SDS011;11095;48.066;8.540;2023-12-22T11:01:28;3.95;;;1.70;;
21860;SDS011;11095;48.066;8.540;2023-12-22T11:04:05;2.33;;;1.20;;
21860;SDS011;11095;48.066;8.540;2023-12-22T11:06:36;3.80;;;1.17;;
21860;SDS011;11095;48.066;8.540;2023-12-22T11:11:35;3.30;;;1.30;;
21860;SDS011;11095;48.066;8.540;2023-12-22T11:14:02;2.65;;;1.05;;
21860;SDS011;11095;48.066;8.540;2023-12-22T11:16:41;3.23;;;1.20;;
21860;SDS011;11095;48.066;8.540;2023-12-22T11:19:12;1.50;;;0.70;;
21860;SDS011;11095;48.066;8.540;2023-12-22T11:21:39;4.15;;;1.13;;
21860;SDS011;11095;48.066;8.540;2023-12-22T11:24:05;3.47;;;1.20;;
21860;SDS011;11095;48.066;8.540;2023-12-22T11:26:32;3.50;;;1.33;;
21860;SDS011;11095;48.066;8.540;2023-12-22T11:28:58;2.33;;;0.82;;
21860;SDS011;11095;48.066;8.540;2023-12-22T11:31:25;2.22;;;1.00;;
21860;SDS011;11095;48.066;8.540;2023-12-22T11:33:53;2.22;;;1.00;;
21860;SDS011;11095;48.066;8.540;2023-12-22T11:36:21;3.22;;;1.13;;
21860;SDS011;11095;48.066;8.540;2023-12-22T11:38:48;1.42;;;0.90;;
21860;SDS011;11095;48.066;8.540;2023-12-22T11:41:16;2.88;;;0.93;;
21860;SDS011;11095;48.066;8.540;2023-12-22T11:43:46;2.47;;;0.85;;
21860;SDS011;11095;48.066;8.540;2023-12-22T11:46:13;1.13;;;0.60;;
21860;SDS011;11095;48.066;8.540;2023-12-22T11:48:48;1.60;;;0.60;;
21860;SDS011;11095;48.066;8.540;2023-12-22T11:51:17;0.93;;;0.50;;
21860;SDS011;11095;48.066;8.540;2023-12-22T11:53:44;1.75;;;0.52;;
21860;SDS011;11095;48.066;8.540;2023-12-22T11:56:10;0.60;;;0.40;;
21860;SDS011;11095;48.066;8.540;2023-12-22T11:58:41;1.52;;;0.80;;
21860;SDS011;11095;48.066;8.540;2023-12-22T12:01:19;1.08;;;0.60;;
21860;SDS011;11095;48.066;8.540;2023-12-22T12:06:21;0.85;;;0.65;;
21860;SDS011;11095;48.066;8.540;2023-12-22T12:08:47;0.75;;;0.50;;
21860;SDS011;11095;48.066;8.540;2023-12-22T12:11:14;0.60;;;0.55;;
21860;SDS011;11095;48.066;8.540;2023-12-22T12:13:43;1.42;;;0.77;;
21860;SDS011;11095;48.066;8.540;2023-12-22T12:16:10;1.13;;;0.60;;
21860;SDS011;11095;48.066;8.540;2023-12-22T12:18:40;0.70;;;0.55;;
21860;SDS011;11095;48.066;8.540;2023-12-22T12:21:07;0.55;;;0.40;;
21860;SDS011;11095;48.066;8.540;2023-12-22T12:23:34;0.75;;;0.60;;
21860;SDS011;11095;48.066;8.540;2023-12-22T12:25:59;1.23;;;0.70;;
21860;SDS011;11095;48.066;8.540;2023-12-22T12:28:26;0.68;;;0.63;;
21860;SDS011;11095;48.066;8.540;2023-12-22T12:31:01;0.82;;;0.60;;
21860;SDS011;11095;48.066;8.540;2023-12-22T12:33:31;0.65;;;0.40;;
21860;SDS011;11095;48.066;8.540;2023-12-22T12:35:58;0.40;;;0.40;;
21860;SDS011;11095;48.066;8.540;2023-12-22T12:39:13;0.32;;;0.32;;
21860;SDS011;11095;48.066;8.540;2023-12-22T12:41:18;0.55;;;0.32;;
21860;SDS011;11095;48.066;8.540;2023-12-22T12:43:54;0.60;;;0.40;;
21860;SDS011;11095;48.066;8.540;2023-12-22T12:46:21;0.40;;;0.40;;
21860;SDS011;11095;48.066;8.540;2023-12-22T12:48:46;0.77;;;0.70;;
21860;SDS011;11095;48.066;8.540;2023-12-22T12:51:12;0.40;;;0.40;;
21860;SDS011;11095;48.066;8.540;2023-12-22T12:53:38;0.63;;;0.40;;
21860;SDS011;11095;48.066;8.540;2023-12-22T12:56:03;0.47;;;0.40;;
21860;SDS011;11095;48.066;8.540;2023-12-22T12:58:30;0.40;;;0.40;;
21860;SDS011;11095;48.066;8.540;2023-12-22T13:01:09;0.30;;;0.30;;
21860;SDS011;11095;48.066;8.540;2023-12-22T13:03:54;0.77;;;0.50;;
21860;SDS011;11095;48.066;8.540;2023-12-22T13:06:21;0.70;;;0.50;;
21860;SDS011;11095;48.066;8.540;2023-12-22T13:08:50;0.73;;;0.40;;
21860;SDS011;11095;48.066;8.540;2023-12-22T13:11:37;0.70;;;0.50;;
21860;SDS011;11095;48.066;8.540;2023-12-22T13:14:02;0.50;;;0.43;;
21860;SDS011;11095;48.066;8.540;2023-12-22T13:16:28;0.85;;;0.50;;
21860;SDS011;11095;48.066;8.540;2023-12-22T13:18:57;0.40;;;0.40;;
21860;SDS011;11095;48.066;8.540;2023-12-22T13:21:23;0.75;;;0.50;;
21860;SDS011;11095;48.066;8.540;2023-12-22T13:26:38;0.77;;;0.55;;
21860;SDS011;11095;48.066;8.540;2023-12-22T13:29:08;0.60;;;0.47;;
21860;SDS011;11095;48.066;8.540;2023-12-22T13:31:39;0.90;;;0.55;;
21860;SDS011;11095;48.066;8.540;2023-12-22T13:34:12;1.00;;;0.65;;
21860;SDS011;11095;48.066;8.540;2023-12-22T13:36:39;0.90;;;0.55;;
21860;SDS011;11095;48.066;8.540;2023-12-22T13:39:07;0.77;;;0.60;;
21860;SDS011;11095;48.066;8.540;2023-12-22T13:41:34;0.52;;;0.40;;
21860;SDS011;11095;48.066;8.540;2023-12-22T13:44:03;0.80;;;0.50;;
21860;SDS011;11095;48.066;8.540;2023-12-22T13:48:55;0.52;;;0.50;;
21860;SDS011;11095;48.066;8.540;2023-12-22T13:51:22;0.70;;;0.60;;
21860;SDS011;11095;48.066;8.540;2023-12-22T13:53:48;0.50;;;0.50;;
21860;SDS011;11095;48.066;8.540;2023-12-22T13:56:14;1.73;;;0.50;;
21860;SDS011;11095;48.066;8.540;2023-12-22T13:58:47;0.82;;;0.52;;
21860;SDS011;11095;48.066;8.540;2023-12-22T14:01:13;1.05;;;0.57;;
21860;SDS011;11095;48.066;8.540;2023-12-22T14:03:40;0.52;;;0.52;;
21860;SDS011;11095;48.066;8.540;2023-12-22T14:06:07;0.77;;;0.60;;
21860;SDS011;11095;48.066;8.540;2023-12-22T14:08:34;0.60;;;0.55;;
21860;SDS011;11095;48.066;8.540;2023-12-22T14:11:06;0.90;;;0.77;;
21860;SDS011;11095;48.066;8.540;2023-12-22T14:13:32;0.50;;;0.50;;
21860;SDS011;11095;48.066;8.540;2023-12-22T14:16:00;0.70;;;0.70;;
21860;SDS011;11095;48.066;8.540;2023-12-22T14:18:26;0.50;;;0.40;;
21860;SDS011;11095;48.066;8.540;2023-12-22T14:20:51;1.17;;;0.45;;
21860;SDS011;11095;48.066;8.540;2023-12-22T14:23:17;0.68;;;0.60;;
21860;SDS011;11095;48.066;8.540;2023-12-22T14:25:42;1.00;;;0.70;;
21860;SDS011;11095;48.066;8.540;2023-12-22T14:28:08;0.80;;;0.60;;
21860;SDS011;11095;48.066;8.540;2023-12-22T14:30:34;1.45;;;0.70;;
21860;SDS011;11095;48.066;8.540;2023-12-22T14:33:00;1.08;;;0.70;;
21860;SDS011;11095;48.066;8.540;2023-12-22T14:35:25;0.88;;;0.70;;
21860;SDS011;11095;48.066;8.540;2023-12-22T14:37:51;0.65;;;0.65;;
21860;SDS011;11095;48.066;8.540;2023-12-22T14:40:16;1.15;;;0.60;;
21860;SDS011;11095;48.066;8.540;2023-12-22T14:42:42;0.50;;;0.40;;
21860;SDS011;11095;48.066;8.540;2023-12-22T14:45:08;0.40;;;0.40;;
21860;SDS011;11095;48.066;8.540;2023-12-22T14:47:34;0.43;;;0.40;;
21860;SDS011;11095;48.066;8.540;2023-12-22T14:50:00;0.55;;;0.40;;
21860;SDS011;11095;48.066;8.540;2023-12-22T14:52:29;0.30;;;0.30;;
21860;SDS011;11095;48.066;8.540;2023-12-22T14:54:57;0.40;;;0.40;;
21860;SDS011;11095;48.066;8.540;2023-12-22T14:57:25;0.37;;;0.37;;
21860;SDS011;11095;48.066;8.540;2023-12-22T14:59:53;0.57;;;0.50;;
21860;SDS011;11095;48.066;8.540;2023-12-22T15:02:19;0.55;;;0.55;;
21860;SDS011;11095;48.066;8.540;2023-12-22T15:04:45;0.63;;;0.55;;